sensor_id;sensor_type;location;lat;lon;timestamp;P1;durP1;ratioP1;P2;durP2;ratioP2
1410;SDS011;700;51.906;8.404;2023-12-14T00:02:50;11.77;;;8.90;;
1410;SDS011;700;51.906;8.404;2023-12-14T00:07:50;14.57;;;7.90;;
1410;SDS011;700;51.906;8.404;2023-12-14T00:12:51;8.57;;;6.17;;
1410;SDS011;700;51.906;8.404;2023-12-14T00:17:53;8.60;;;6.13;;
1410;SDS011;700;51.906;8.404;2023-12-14T00:22:56;8.73;;;6.30;;
1410;SDS011;700;51.906;8.404;2023-12-14T00:27:56;8.03;;;5.43;;
1410;SDS011;700;51.906;8.404;2023-12-14T00:32:59;8.00;;;5.47;;
1410;SDS011;700;51.906;8.404;2023-12-14T00:38:00;7.90;;;5.80;;
1410;SDS011;700;51.906;8.404;2023-12-14T00:43:03;7.50;;;5.87;;
1410;SDS011;700;51.906;8.404;2023-12-14T00:48:06;7.00;;;5.23;;
1410;SDS011;700;51.906;8.404;2023-12-14T00:53:06;7.17;;;5.27;;
1410;SDS011;700;51.906;8.404;2023-12-14T00:58:12;5.20;;;4.10;;
1410;SDS011;700;51.906;8.404;2023-12-14T01:03:15;4.97;;;4.00;;
1410;SDS011;700;51.906;8.404;2023-12-14T01:08:16;6.97;;;4.20;;
1410;SDS011;700;51.906;8.404;2023-12-14T01:13:16;5.27;;;3.67;;
1410;SDS011;700;51.906;8.404;2023-12-14T01:18:17;5.43;;;3.47;;
1410;SDS011;700;51.906;8.404;2023-12-14T01:23:17;6.73;;;4.30;;
1410;SDS011;700;51.906;8.404;2023-12-14T01:28:18;4.30;;;3.23;;
1410;SDS011;700;51.906;8.404;2023-12-14T01:33:19;5.67;;;3.93;;
1410;SDS011;700;51.906;8.404;2023-12-14T01:38:22;4.37;;;3.63;;
1410;SDS011;700;51.906;8.404;2023-12-14T01:43:22;5.50;;;3.57;;
1410;SDS011;700;51.906;8.404;2023-12-14T01:48:23;5.93;;;3.97;;
1410;SDS011;700;51.906;8.404;2023-12-14T01:53:26;6.47;;;4.00;;
1410;SDS011;700;51.906;8.404;2023-12-14T01:58:26;4.07;;;3.40;;
1410;SDS011;700;51.906;8.404;2023-12-14T02:03:27;4.30;;;3.57;;
1410;SDS011;700;51.906;8.404;2023-12-14T02:08:28;6.00;;;3.40;;
1410;SDS011;700;51.906;8.404;2023-12-14T02:13:29;4.37;;;3.20;;
1410;SDS011;700;51.906;8.404;2023-12-14T02:18:30;4.40;;;3.27;;
1410;SDS011;700;51.906;8.404;2023-12-14T02:23:33;3.80;;;3.20;;
1410;SDS011;700;51.906;8.404;2023-12-14T02:28:34;4.87;;;3.80;;
1410;SDS011;700;51.906;8.404;2023-12-14T02:33:36;5.77;;;3.20;;
1410;SDS011;700;51.906;8.404;2023-12-14T02:38:36;4.30;;;3.60;;
1410;SDS011;700;51.906;8.404;2023-12-14T02:43:37;4.30;;;3.40;;
1410;SDS011;700;51.906;8.404;2023-12-14T02:48:41;4.87;;;3.70;;
1410;SDS011;700;51.906;8.404;2023-12-14T02:53:42;4.00;;;3.30;;
1410;SDS011;700;51.906;8.404;2023-12-14T02:58:43;3.17;;;2.53;;
1410;SDS011;700;51.906;8.404;2023-12-14T03:03:44;3.40;;;2.50;;
1410;SDS011;700;51.906;8.404;2023-12-14T03:08:46;3.40;;;2.63;;
1410;SDS011;700;51.906;8.404;2023-12-14T03:13:49;3.57;;;2.50;;
1410;SDS011;700;51.906;8.404;2023-12-14T03:18:50;3.23;;;2.70;;
1410;SDS011;700;51.906;8.404;2023-12-14T03:23:53;5.40;;;2.77;;
1410;SDS011;700;51.906;8.404;2023-12-14T03:28:53;4.70;;;2.63;;
1410;SDS011;700;51.906;8.404;2023-12-14T03:33:54;3.30;;;3.00;;
1410;SDS011;700;51.906;8.404;2023-12-14T03:38:57;4.30;;;3.10;;
1410;SDS011;700;51.906;8.404;2023-12-14T03:43:58;4.43;;;3.00;;
1410;SDS011;700;51.906;8.404;2023-12-14T03:48:58;4.13;;;3.13;;
1410;SDS011;700;51.906;8.404;2023-12-14T03:53:59;4.30;;;3.50;;
1410;SDS011;700;51.906;8.404;2023-12-14T03:59:02;5.37;;;4.00;;
1410;SDS011;700;51.906;8.404;2023-12-14T04:04:04;5.10;;;3.80;;
1410;SDS011;700;51.906;8.404;2023-12-14T04:09:05;5.17;;;4.07;;
1410;SDS011;700;51.906;8.404;2023-12-14T04:14:06;6.13;;;4.80;;
1410;SDS011;700;51.906;8.404;2023-12-14T04:19:06;5.00;;;4.00;;
1410;SDS011;700;51.906;8.404;2023-12-14T04:24:10;7.30;;;4.70;;
1410;SDS011;700;51.906;8.404;2023-12-14T04:29:12;6.03;;;4.83;;
1410;SDS011;700;51.906;8.404;2023-12-14T04:34:15;4.83;;;4.27;;
1410;SDS011;700;51.906;8.404;2023-12-14T04:39:19;5.57;;;4.97;;
1410;SDS011;700;51.906;8.404;2023-12-14T04:44:20;7.97;;;4.73;;
1410;SDS011;700;51.906;8.404;2023-12-14T04:49:23;7.17;;;5.50;;
1410;SDS011;700;51.906;8.404;2023-12-14T04:54:28;7.63;;;5.20;;
1410;SDS011;700;51.906;8.404;2023-12-14T04:59:31;8.03;;;5.20;;
1410;SDS011;700;51.906;8.404;2023-12-14T05:04:32;7.30;;;5.23;;
1410;SDS011;700;51.906;8.404;2023-12-14T05:09:32;8.17;;;5.77;;
1410;SDS011;700;51.906;8.404;2023-12-14T05:14:33;5.37;;;4.57;;
1410;SDS011;700;51.906;8.404;2023-12-14T05:19:34;6.90;;;5.17;;
1410;SDS011;700;51.906;8.404;2023-12-14T05:24:34;7.53;;;5.90;;
1410;SDS011;700;51.906;8.404;2023-12-14T05:29:35;5.60;;;5.00;;
1410;SDS011;700;51.906;8.404;2023-12-14T05:34:36;7.37;;;5.40;;
1410;SDS011;700;51.906;8.404;2023-12-14T05:39:36;7.57;;;6.17;;
1410;SDS011;700;51.906;8.404;2023-12-14T05:44:37;8.77;;;7.33;;
1410;SDS011;700;51.906;8.404;2023-12-14T05:49:41;9.10;;;7.80;;
1410;SDS011;700;51.906;8.404;2023-12-14T05:54:43;8.83;;;7.93;;
1410;SDS011;700;51.906;8.404;2023-12-14T05:59:43;9.20;;;7.27;;
1410;SDS011;700;51.906;8.404;2023-12-14T06:04:44;9.37;;;8.17;;
1410;SDS011;700;51.906;8.404;2023-12-14T06:09:47;7.93;;;6.90;;
1410;SDS011;700;51.906;8.404;2023-12-14T06:14:50;9.03;;;7.43;;
1410;SDS011;700;51.906;8.404;2023-12-14T06:19:51;9.67;;;6.77;;
1410;SDS011;700;51.906;8.404;2023-12-14T06:24:54;8.53;;;7.10;;
1410;SDS011;700;51.906;8.404;2023-12-14T06:29:55;7.87;;;6.10;;
1410;SDS011;700;51.906;8.404;2023-12-14T06:34:56;9.50;;;6.53;;
1410;SDS011;700;51.906;8.404;2023-12-14T06:40:03;9.10;;;7.07;;
1410;SDS011;700;51.906;8.404;2023-12-14T06:45:08;9.20;;;8.30;;
1410;SDS011;700;51.906;8.404;2023-12-14T06:50:22;7.13;;;6.30;;
1410;SDS011;700;51.906;8.404;2023-12-14T06:55:23;7.23;;;6.53;;
1410;SDS011;700;51.906;8.404;2023-12-14T07:00:24;8.13;;;7.27;;
1410;SDS011;700;51.906;8.404;2023-12-14T07:05:25;6.73;;;6.03;;
1410;SDS011;700;51.906;8.404;2023-12-14T07:10:30;7.47;;;6.33;;
1410;SDS011;700;51.906;8.404;2023-12-14T07:15:31;6.57;;;5.87;;
1410;SDS011;700;51.906;8.404;2023-12-14T07:20:32;6.00;;;5.03;;
1410;SDS011;700;51.906;8.404;2023-12-14T07:25:33;5.60;;;5.10;;
1410;SDS011;700;51.906;8.404;2023-12-14T07:30:33;6.77;;;5.70;;
1410;SDS011;700;51.906;8.404;2023-12-14T07:35:34;6.37;;;5.60;;
1410;SDS011;700;51.906;8.404;2023-12-14T07:40:37;7.40;;;6.00;;
1410;SDS011;700;51.906;8.404;2023-12-14T07:45:41;7.93;;;6.10;;
1410;SDS011;700;51.906;8.404;2023-12-14T07:50:41;6.67;;;6.00;;
1410;SDS011;700;51.906;8.404;2023-12-14T07:55:44;7.27;;;6.00;;
1410;SDS011;700;51.906;8.404;2023-12-14T08:00:45;8.23;;;6.23;;
1410;SDS011;700;51.906;8.404;2023-12-14T08:05:51;7.43;;;5.73;;
1410;SDS011;700;51.906;8.404;2023-12-14T08:10:51;7.33;;;5.93;;
1410;SDS011;700;51.906;8.404;2023-12-14T08:15:52;7.83;;;7.00;;
1410;SDS011;700;51.906;8.404;2023-12-14T08:20:54;7.40;;;6.60;;
1410;SDS011;700;51.906;8.404;2023-12-14T08:25:55;8.63;;;7.00;;
1410;SDS011;700;51.906;8.404;2023-12-14T08:30:57;25.17;;;12.20;;
1410;SDS011;700;51.906;8.404;2023-12-14T08:35:58;8.93;;;7.40;;
1410;SDS011;700;51.906;8.404;2023-12-14T08:41:01;9.60;;;7.70;;
1410;SDS011;700;51.906;8.404;2023-12-14T08:46:04;10.03;;;7.23;;
1410;SDS011;700;51.906;8.404;2023-12-14T08:51:07;8.27;;;7.37;;
1410;SDS011;700;51.906;8.404;2023-12-14T08:56:08;9.97;;;7.50;;
1410;SDS011;700;51.906;8.404;2023-12-14T09:01:09;8.20;;;7.20;;
1410;SDS011;700;51.906;8.404;2023-12-14T09:06:12;7.67;;;6.80;;
1410;SDS011;700;51.906;8.404;2023-12-14T09:11:12;7.40;;;6.70;;
1410;SDS011;700;51.906;8.404;2023-12-14T09:16:17;8.20;;;6.10;;
1410;SDS011;700;51.906;8.404;2023-12-14T09:21:18;6.50;;;5.80;;
1410;SDS011;700;51.906;8.404;2023-12-14T09:26:21;8.47;;;6.00;;
1410;SDS011;700;51.906;8.404;2023-12-14T09:31:22;10.50;;;6.03;;
1410;SDS011;700;51.906;8.404;2023-12-14T09:36:22;7.20;;;6.23;;
1410;SDS011;700;51.906;8.404;2023-12-14T09:41:27;8.30;;;6.00;;
1410;SDS011;700;51.906;8.404;2023-12-14T09:46:28;7.03;;;5.60;;
1410;SDS011;700;51.906;8.404;2023-12-14T09:51:29;6.40;;;5.30;;
1410;SDS011;700;51.906;8.404;2023-12-14T09:56:30;9.17;;;5.90;;
1410;SDS011;700;51.906;8.404;2023-12-14T10:01:33;9.63;;;6.30;;
1410;SDS011;700;51.906;8.404;2023-12-14T10:06:34;8.80;;;6.60;;
1410;SDS011;700;51.906;8.404;2023-12-14T10:11:38;7.10;;;6.33;;
1410;SDS011;700;51.906;8.404;2023-12-14T10:16:42;6.77;;;5.43;;
1410;SDS011;700;51.906;8.404;2023-12-14T10:21:43;7.60;;;5.90;;
1410;SDS011;700;51.906;8.404;2023-12-14T10:26:48;7.43;;;6.30;;
1410;SDS011;700;51.906;8.404;2023-12-14T10:31:51;7.90;;;5.87;;
1410;SDS011;700;51.906;8.404;2023-12-14T10:36:53;5.63;;;4.87;;
1410;SDS011;700;51.906;8.404;2023-12-14T10:41:59;7.80;;;6.30;;
1410;SDS011;700;51.906;8.404;2023-12-14T10:47:07;7.70;;;6.03;;
1410;SDS011;700;51.906;8.404;2023-12-14T10:52:08;5.47;;;4.93;;
1410;SDS011;700;51.906;8.404;2023-12-14T10:57:10;6.07;;;5.47;;
1410;SDS011;700;51.906;8.404;2023-12-14T11:02:13;10.03;;;6.20;;
1410;SDS011;700;51.906;8.404;2023-12-14T11:07:15;6.60;;;5.50;;
1410;SDS011;700;51.906;8.404;2023-12-14T11:12:19;9.00;;;6.50;;
1410;SDS011;700;51.906;8.404;2023-12-14T11:17:24;8.80;;;6.03;;
1410;SDS011;700;51.906;8.404;2023-12-14T11:22:27;7.20;;;5.50;;
1410;SDS011;700;51.906;8.404;2023-12-14T11:27:29;5.83;;;4.97;;
1410;SDS011;700;51.906;8.404;2023-12-14T11:32:30;6.53;;;5.77;;
1410;SDS011;700;51.906;8.404;2023-12-14T11:37:33;6.37;;;5.07;;
1410;SDS011;700;51.906;8.404;2023-12-14T11:42:35;12.90;;;11.13;;
1410;SDS011;700;51.906;8.404;2023-12-14T11:47:36;5.57;;;4.97;;
1410;SDS011;700;51.906;8.404;2023-12-14T11:52:39;6.20;;;5.60;;
1410;SDS011;700;51.906;8.404;2023-12-14T11:57:45;6.47;;;5.43;;
1410;SDS011;700;51.906;8.404;2023-12-14T12:02:47;6.40;;;5.80;;
1410;SDS011;700;51.906;8.404;2023-12-14T12:07:50;5.23;;;4.73;;
1410;SDS011;700;51.906;8.404;2023-12-14T12:13:01;5.40;;;4.90;;
1410;SDS011;700;51.906;8.404;2023-12-14T12:18:08;5.57;;;5.07;;
1410;SDS011;700;51.906;8.404;2023-12-14T12:23:12;5.50;;;5.00;;
1410;SDS011;700;51.906;8.404;2023-12-14T12:28:13;5.30;;;4.80;;
1410;SDS011;700;51.906;8.404;2023-12-14T12:33:14;5.30;;;4.80;;
1410;SDS011;700;51.906;8.404;2023-12-14T12:38:14;5.60;;;4.90;;
1410;SDS011;700;51.906;8.404;2023-12-14T12:43:18;6.23;;;5.50;;
1410;SDS011;700;51.906;8.404;2023-12-14T12:48:19;6.03;;;5.43;;
1410;SDS011;700;51.906;8.404;2023-12-14T12:53:20;6.17;;;4.90;;
1410;SDS011;700;51.906;8.404;2023-12-14T12:58:23;5.67;;;5.17;;
1410;SDS011;700;51.906;8.404;2023-12-14T13:03:23;5.70;;;5.10;;
1410;SDS011;700;51.906;8.404;2023-12-14T13:08:24;5.50;;;5.00;;
1410;SDS011;700;51.906;8.404;2023-12-14T13:13:24;5.70;;;4.87;;
1410;SDS011;700;51.906;8.404;2023-12-14T13:18:27;4.53;;;4.10;;
1410;SDS011;700;51.906;8.404;2023-12-14T13:23:28;5.03;;;4.33;;
1410;SDS011;700;51.906;8.404;2023-12-14T13:28:31;4.97;;;4.43;;
1410;SDS011;700;51.906;8.404;2023-12-14T13:33:34;5.37;;;4.10;;
1410;SDS011;700;51.906;8.404;2023-12-14T13:38:34;5.83;;;4.73;;
1410;SDS011;700;51.906;8.404;2023-12-14T13:43:36;5.03;;;4.53;;
1410;SDS011;700;51.906;8.404;2023-12-14T13:48:36;6.90;;;5.63;;
1410;SDS011;700;51.906;8.404;2023-12-14T13:53:37;4.70;;;4.30;;
1410;SDS011;700;51.906;8.404;2023-12-14T13:58:37;4.70;;;4.13;;
1410;SDS011;700;51.906;8.404;2023-12-14T14:03:41;4.90;;;4.40;;
1410;SDS011;700;51.906;8.404;2023-12-14T14:08:42;5.83;;;4.90;;
1410;SDS011;700;51.906;8.404;2023-12-14T14:13:43;6.00;;;5.13;;
1410;SDS011;700;51.906;8.404;2023-12-14T14:18:43;7.47;;;5.60;;
1410;SDS011;700;51.906;8.404;2023-12-14T14:23:46;6.80;;;5.97;;
1410;SDS011;700;51.906;8.404;2023-12-14T14:28:47;7.77;;;7.00;;
1410;SDS011;700;51.906;8.404;2023-12-14T14:33:48;9.07;;;8.07;;
1410;SDS011;700;51.906;8.404;2023-12-14T14:38:48;8.70;;;7.27;;
1410;SDS011;700;51.906;8.404;2023-12-14T14:43:50;14.53;;;11.93;;
1410;SDS011;700;51.906;8.404;2023-12-14T14:48:50;9.63;;;8.53;;
1410;SDS011;700;51.906;8.404;2023-12-14T14:53:51;10.60;;;9.07;;
1410;SDS011;700;51.906;8.404;2023-12-14T14:58:54;12.37;;;9.60;;
1410;SDS011;700;51.906;8.404;2023-12-14T15:03:55;10.17;;;9.13;;
1410;SDS011;700;51.906;8.404;2023-12-14T15:08:59;14.00;;;10.17;;
1410;SDS011;700;51.906;8.404;2023-12-14T15:14:00;11.93;;;10.40;;
1410;SDS011;700;51.906;8.404;2023-12-14T15:19:01;12.93;;;10.20;;
1410;SDS011;700;51.906;8.404;2023-12-14T15:24:02;12.00;;;10.30;;
1410;SDS011;700;51.906;8.404;2023-12-14T15:29:03;11.90;;;9.83;;
1410;SDS011;700;51.906;8.404;2023-12-14T15:34:04;11.17;;;9.30;;
1410;SDS011;700;51.906;8.404;2023-12-14T15:39:07;16.40;;;12.13;;
1410;SDS011;700;51.906;8.404;2023-12-14T15:44:12;12.17;;;10.00;;
1410;SDS011;700;51.906;8.404;2023-12-14T15:49:15;11.10;;;9.50;;
1410;SDS011;700;51.906;8.404;2023-12-14T15:54:15;12.57;;;11.27;;
1410;SDS011;700;51.906;8.404;2023-12-14T15:59:18;13.53;;;11.53;;
1410;SDS011;700;51.906;8.404;2023-12-14T16:04:24;13.20;;;10.13;;
1410;SDS011;700;51.906;8.404;2023-12-14T16:09:24;13.80;;;12.07;;
1410;SDS011;700;51.906;8.404;2023-12-14T16:14:27;13.73;;;12.20;;
1410;SDS011;700;51.906;8.404;2023-12-14T16:19:28;12.37;;;10.37;;
1410;SDS011;700;51.906;8.404;2023-12-14T16:24:28;13.97;;;11.03;;
1410;SDS011;700;51.906;8.404;2023-12-14T16:29:34;11.70;;;9.93;;
1410;SDS011;700;51.906;8.404;2023-12-14T16:34:36;15.03;;;12.33;;
1410;SDS011;700;51.906;8.404;2023-12-14T16:39:40;13.90;;;11.73;;
1410;SDS011;700;51.906;8.404;2023-12-14T16:44:41;21.17;;;15.87;;
1410;SDS011;700;51.906;8.404;2023-12-14T16:49:45;16.30;;;12.93;;
1410;SDS011;700;51.906;8.404;2023-12-14T16:54:46;16.33;;;13.20;;
1410;SDS011;700;51.906;8.404;2023-12-14T16:59:49;16.53;;;13.27;;
1410;SDS011;700;51.906;8.404;2023-12-14T17:04:49;18.00;;;13.00;;
1410;SDS011;700;51.906;8.404;2023-12-14T17:09:50;17.07;;;12.90;;
1410;SDS011;700;51.906;8.404;2023-12-14T17:14:51;17.00;;;13.37;;
1410;SDS011;700;51.906;8.404;2023-12-14T17:19:52;18.93;;;13.57;;
1410;SDS011;700;51.906;8.404;2023-12-14T17:24:52;22.77;;;15.80;;
1410;SDS011;700;51.906;8.404;2023-12-14T17:29:53;15.07;;;12.70;;
1410;SDS011;700;51.906;8.404;2023-12-14T17:34:54;22.90;;;15.07;;
1410;SDS011;700;51.906;8.404;2023-12-14T17:39:59;21.63;;;14.67;;
1410;SDS011;700;51.906;8.404;2023-12-14T17:45:02;18.37;;;13.60;;
1410;SDS011;700;51.906;8.404;2023-12-14T17:50:05;25.10;;;17.90;;
1410;SDS011;700;51.906;8.404;2023-12-14T17:55:08;21.90;;;15.30;;
1410;SDS011;700;51.906;8.404;2023-12-14T18:00:09;19.13;;;14.20;;
1410;SDS011;700;51.906;8.404;2023-12-14T18:05:11;17.53;;;13.73;;
1410;SDS011;700;51.906;8.404;2023-12-14T18:10:14;19.60;;;13.70;;
1410;SDS011;700;51.906;8.404;2023-12-14T18:15:18;16.80;;;12.90;;
1410;SDS011;700;51.906;8.404;2023-12-14T18:20:19;18.53;;;14.10;;
1410;SDS011;700;51.906;8.404;2023-12-14T18:25:19;19.40;;;14.20;;
1410;SDS011;700;51.906;8.404;2023-12-14T18:30:22;24.30;;;16.40;;
1410;SDS011;700;51.906;8.404;2023-12-14T18:35:28;22.90;;;17.03;;
1410;SDS011;700;51.906;8.404;2023-12-14T18:40:28;21.13;;;15.40;;
1410;SDS011;700;51.906;8.404;2023-12-14T18:45:32;18.43;;;14.50;;
1410;SDS011;700;51.906;8.404;2023-12-14T18:50:33;22.13;;;16.77;;
1410;SDS011;700;51.906;8.404;2023-12-14T18:55:33;22.90;;;15.83;;
1410;SDS011;700;51.906;8.404;2023-12-14T19:00:36;21.00;;;16.20;;
1410;SDS011;700;51.906;8.404;2023-12-14T19:05:37;23.63;;;15.00;;
1410;SDS011;700;51.906;8.404;2023-12-14T19:10:40;22.40;;;16.60;;
1410;SDS011;700;51.906;8.404;2023-12-14T19:15:40;21.13;;;15.27;;
1410;SDS011;700;51.906;8.404;2023-12-14T19:20:42;21.77;;;15.30;;
1410;SDS011;700;51.906;8.404;2023-12-14T19:25:45;24.37;;;17.57;;
1410;SDS011;700;51.906;8.404;2023-12-14T19:30:46;21.97;;;16.70;;
1410;SDS011;700;51.906;8.404;2023-12-14T19:35:46;27.57;;;19.33;;
1410;SDS011;700;51.906;8.404;2023-12-14T19:40:49;22.00;;;16.80;;
1410;SDS011;700;51.906;8.404;2023-12-14T19:45:52;23.83;;;16.70;;
1410;SDS011;700;51.906;8.404;2023-12-14T19:50:53;22.70;;;16.80;;
1410;SDS011;700;51.906;8.404;2023-12-14T19:55:59;25.97;;;16.97;;
1410;SDS011;700;51.906;8.404;2023-12-14T20:01:02;23.73;;;16.43;;
1410;SDS011;700;51.906;8.404;2023-12-14T20:06:05;23.00;;;15.80;;
1410;SDS011;700;51.906;8.404;2023-12-14T20:11:14;22.83;;;17.00;;
1410;SDS011;700;51.906;8.404;2023-12-14T20:16:16;24.10;;;17.00;;
1410;SDS011;700;51.906;8.404;2023-12-14T20:21:16;27.27;;;17.40;;
1410;SDS011;700;51.906;8.404;2023-12-14T20:26:20;27.00;;;17.77;;
1410;SDS011;700;51.906;8.404;2023-12-14T20:31:30;24.73;;;16.53;;
1410;SDS011;700;51.906;8.404;2023-12-14T20:36:32;25.00;;;17.33;;
1410;SDS011;700;51.906;8.404;2023-12-14T20:41:33;26.30;;;17.17;;
1410;SDS011;700;51.906;8.404;2023-12-14T20:46:37;24.27;;;16.90;;
1410;SDS011;700;51.906;8.404;2023-12-14T20:51:40;26.57;;;16.10;;
1410;SDS011;700;51.906;8.404;2023-12-14T20:56:41;27.27;;;18.17;;
1410;SDS011;700;51.906;8.404;2023-12-14T21:01:41;29.93;;;17.97;;
1410;SDS011;700;51.906;8.404;2023-12-14T21:06:42;29.20;;;18.77;;
1410;SDS011;700;51.906;8.404;2023-12-14T21:11:43;26.90;;;18.77;;
1410;SDS011;700;51.906;8.404;2023-12-14T21:16:44;29.40;;;17.73;;
1410;SDS011;700;51.906;8.404;2023-12-14T21:21:50;26.47;;;16.90;;
1410;SDS011;700;51.906;8.404;2023-12-14T21:26:50;27.97;;;18.57;;
1410;SDS011;700;51.906;8.404;2023-12-14T21:32:10;26.03;;;16.83;;
1410;SDS011;700;51.906;8.404;2023-12-14T21:37:14;27.63;;;17.20;;
1410;SDS011;700;51.906;8.404;2023-12-14T21:42:14;27.53;;;16.73;;
1410;SDS011;700;51.906;8.404;2023-12-14T21:47:17;28.80;;;18.27;;
1410;SDS011;700;51.906;8.404;2023-12-14T21:52:18;26.37;;;16.50;;
1410;SDS011;700;51.906;8.404;2023-12-14T21:57:19;26.43;;;16.47;;
1410;SDS011;700;51.906;8.404;2023-12-14T22:02:19;28.63;;;16.63;;
1410;SDS011;700;51.906;8.404;2023-12-14T22:07:21;26.93;;;17.63;;
1410;SDS011;700;51.906;8.404;2023-12-14T22:12:21;25.13;;;16.40;;
1410;SDS011;700;51.906;8.404;2023-12-14T22:17:24;24.57;;;15.63;;
1410;SDS011;700;51.906;8.404;2023-12-14T22:22:27;24.70;;;15.10;;
1410;SDS011;700;51.906;8.404;2023-12-14T22:27:28;25.03;;;15.57;;
1410;SDS011;700;51.906;8.404;2023-12-14T22:32:28;27.80;;;16.57;;
1410;SDS011;700;51.906;8.404;2023-12-14T22:37:31;22.93;;;14.17;;
1410;SDS011;700;51.906;8.404;2023-12-14T22:42:32;26.33;;;16.47;;
1410;SDS011;700;51.906;8.404;2023-12-14T22:47:35;24.70;;;16.30;;
1410;SDS011;700;51.906;8.404;2023-12-14T22:52:36;27.90;;;16.63;;
1410;SDS011;700;51.906;8.404;2023-12-14T22:57:37;20.80;;;14.37;;
1410;SDS011;700;51.906;8.404;2023-12-14T23:02:41;24.97;;;14.37;;
1410;SDS011;700;51.906;8.404;2023-12-14T23:07:42;23.30;;;14.57;;
1410;SDS011;700;51.906;8.404;2023-12-14T23:12:42;26.87;;;15.67;;
1410;SDS011;700;51.906;8.404;2023-12-14T23:17:43;27.20;;;15.07;;
1410;SDS011;700;51.906;8.404;2023-12-14T23:22:43;26.07;;;14.87;;
1410;SDS011;700;51.906;8.404;2023-12-14T23:27:44;25.90;;;14.90;;
1410;SDS011;700;51.906;8.404;2023-12-14T23:32:47;25.87;;;15.27;;
1410;SDS011;700;51.906;8.404;2023-12-14T23:37:48;26.83;;;16.10;;
1410;SDS011;700;51.906;8.404;2023-12-14T23:42:48;26.97;;;15.03;;
1410;SDS011;700;51.906;8.404;2023-12-14T23:47:49;28.80;;;15.93;;
1410;SDS011;700;51.906;8.404;2023-12-14T23:52:52;28.67;;;17.63;;
1410;SDS011;700;51.906;8.404;2023-12-14T23:57:52;28.07;;;16.83;;
